Токио, Јапонија

07:11 PM JST на 24 Март, 2017 (GMT +0900)
大田区 | | Change Station

Elev 0 ft 35.58 °N, 139.71 °E | Updated 3 minutes ago

Ведро
Ведро
47.5 °F
Feels Like 48 °F
С
1.2
Ветер Променлив Ветер from Исток
Gusts 8.7 mph

Денес
High -- | Low -- °F
--% Chance of Precip.
Вчера
High -- | Low -- °F
Precip. -- инчи
Притисок 30.01 инчи
Видливост -9999.0 миљи
Облаци
Лични чувство за темп. со ветерот 48 °F
Точка на kондензација 20 °F
Влажност 34%
Дожд 0.00 инчи
Височина на снег Not available.
5:39 AM 5:55 PM
Последниот квартал, 16% visible
METAR RJTT 241000Z 35019KT CAVOK 08/M06 Q1016 NOSIG RMK A3001
Притисок 30.01 инчи
Видливост -9999.0 миљи
Облаци
Лични чувство за темп. со ветерот 48 °F
Точка на kондензација 20 °F
Влажност 34%
Дожд 0.00 инчи
Височина на снег Not available.
5:39 AM 5:55 PM
Последниот квартал, 16% visible
METAR RJTT 241000Z 35019KT CAVOK 08/M06 Q1016 NOSIG RMK A3001

Get Severe Weather Alerts

Thanks for signing up!

Be on the lookout for a verification email in your inbox.

You'll start receiving the daily forecast at 8 AM.

×

10-Day Weather Forecast

No radar image for this location.
×

Almanac

Астрономијата

Mar. 24, 2017 Изгревање Заоѓање
Актуелно време
Граѓанскиот самрак
Наутички самрак
Астрономски самрак
Месечината
Должина на видливата светлина
Должина на денот
Tomorrow will be .
, % of the Moon is Illuminated

Екстреми денес

Country Highs Country Lows

Community

WunderPhotos

Upload Photos

1,962,540 photos uploaded!

WunderBlog® & News

Nearby

Квалитетот на воздухот

  Квалитетот на воздухот AQ индекс Загадувач
Not available.

Височина на снег

Station Depth Висина

Earthquake Activity

Град Distance Mag. Time & Date
Minimum magnitude displayed is 2.5.

Earthquake Activity

Град Distance Mag. Time & Date
Minimum magnitude displayed is 2.5.

Coastal Water Temperatures

Место Температура

Stations

Nearby Weather Stations

Локација на станицата Темп. Лични чувство за темп. со ветерот Точка на kондензација Влажност Ветер Precip. Elev Ажурирани Тип